Pellston Regional Airport of Emmet County Airport
KPLN : now visible

Airfield :











YOU CAN JOIN US ON...

 
LOGIN :

Register | Disclaimer

   EN    FR    IT 

 









Legend :    VFR   Marginal VFR   IFR   Intensive IFR   Very Intensive IFR
Visi :
Ceiling :
>= 8 km
>= 3000ft
5 to 8 km
1000 to 3000 ft
1500m to 5 km
500 to 1000 ft
800 to 1500m
200 to 500 ft
< 800m
< 200 ft
Symbols :   Thunderstorms  Fog  Heavy snow  Heavy precipitations  Wind > 20 kt






- Airport Elevation : 721 ft
- IATA code : PLN


KPLN - Pellston Regional of Emmet County

CURRENT METAR :
  • 211822Z AUTO 35012KT 10SM SCT025 OVC042 08/05 A2982 RMK AO2 RAB09E18 P0000 T00830050

EXPIRED METARs :
  • 211754Z AUTO 35014G21KT 10SM FEW014 SCT020 OVC025 08/06 A2982 RMK AO2 SLP100 60009 T00830061 10111 20083 53000
  • 211716Z AUTO 02009KT 10SM SCT014 BKN024 OVC032 09/06 A2981 RMK AO2 T00890061
  • 211654Z AUTO 02009KT 10SM BKN014 OVC019 08/07 A2982 RMK AO2 RAE28 SLP100 P0000 T00830067
  • 211554Z AUTO 01012KT 10SM -RA OVC014 08/07 A2981 RMK AO2 SLP099 P0002 T00830072
  • 211528Z AUTO 02009KT 6SM -RA BR OVC014 08/07 A2981 RMK AO2 P0002 T00830072

TAF KPLN
Valid from the 21 at 18:00 until the 22 at 18:00 UTC


211728Z 2118/2218 01011G18KT P6SM VCSH OVC020
FM212100 35013G21KT P6SM SCT020 BKN030
FM220300 36006KT P6SM BKN029
FM220900 VRB03KT P6SM BKN027
KZMP FIR / North America



MET'MAP, your aeronautical weather chart ! - Copyright ORBIFLY December 2007 - Disclaimer

ORBIFLY MET'MAP TEAM :

Programming & Development : Alexandra Zaïnal
Concept & original design : Baudouin d'Aumeries
Assistance for programming : Marc-Olivier Méhu
Technical & hardware support : Manuel Goepfert

Contact : metmap@orbifly.com




SOURCES & CREDITS :

   NOAA       Earth
Advisory